AirNav   Air Wisconsin Up To $57,000 Bonus
 
 478 users online  

XA40 Richardson Regional Heliport - Bush Highway
Richardson, Texas, USA

GOING TO RICHARDSON?


FAA INFORMATION EFFECTIVE 18 JULY 2019

Location

FAA Identifier: XA40
Lat/Long: 32-59-46.3000N / 096-39-56.2300W
32-59.771667N / 096-39.937167W
32.9961944 / -96.6656194
(estimated)
Elevation: 615 ft. / 187 m (estimated)
From city: 5 miles NE of RICHARDSON, TX
Time zone: UTC -5 (UTC -6 during Standard Time)
Zip code: 75082

Heliport Operations

Heliport use: Private use. Permission required prior to landing
Activation date: 02/2011
Control tower: no
ARTCC: FORT WORTH CENTER
FSS: FORT WORTH FLIGHT SERVICE STATION
Attendance: UNATNDD
Segmented circle: no

Heliport Communications

WX AWOS-3 at ADS (9 nm W): PHONE 972-386-4855
WX ASOS at TKI (12 nm N): 119.925 (972-548-8525)
WX AWOS-3 at F46 (12 nm E): 121.25 (972-772-6699)
WX ASOS at DAL (13 nm SW): PHONE 214-353-1551
WX AWOS-3 at 49T (15 nm SW): 135.425 (214-670-1243)
WX AWOS-3 at HQZ (16 nm SE): 118.175 (972-222-7631)
WX ASOS at DFW (20 nm W): PHONE 972-615-2608

Nearby radio navigation aids

VOR radial/distance  VOR name  Freq  Var
CVEr056/13.6COWBOY VOR/DME116.2006E
TTTr062/20.4MAVERICK VOR/DME113.1006E
FUZr070/26.7RANGER VORTAC115.7006E
BYPr208/39.0BONHAM VORTAC114.6006E

 
NDB name  Hdg/Dist  Freq  Var  ID
MESQUITE325/13.224803EPQF .--. --.- ..-.
CADDO MILLS257/21.231606EMII -- .. ..
TRAVIS298/25.326006EAVZ .- ...- --..

Heliport Services

Runway Information

Helipad H1

Dimensions: 40 x 40 ft. / 12 x 12 m
Surface: concrete
Latitude: 32-59.771667N
Longitude: 096-39.937167W
Elevation: 615.0 ft.
Traffic pattern: leftleft

Heliport Ownership and Management from official FAA records

Ownership: Privately-owned
Owner: METHODIST RICHARDSON MEDICAL CENTER
2831 E. PRESIDENT GEORGE BUSH HWY
RICHARDSON, TX 75082
Phone 972-498-4000
Manager: TERRY BURKLEY
1441 N. BECKLEY AVE.
DALLAS, TX 75203
Phone 214-947-8447

Additional Remarks

FOR CD CTC REGIONAL APCH AT 972-615-2799.

Instrument Procedures

There are no published instrument procedures at XA40.

Some nearby airports with instrument procedures:

KADS - Addison Airport (9 nm W)
KTKI - McKinney National Airport (12 nm N)
F46 - Ralph M Hall/Rockwall Municipal Airport (12 nm E)
KDAL - Dallas Love Field Airport (13 nm SW)
KHQZ - Mesquite Metro Airport (16 nm SE)
KDFW - Dallas-Fort Worth International Airport (20 nm W)
 
Loc | Ops | Rwys | IFR | FBO | Links
Com | Nav | Svcs | Stats | Notes
Aerial photo
No photo
 
Sectional chart

 
Airport distance calculator
Flying to Richardson Regional Heliport - Bush Highway? Find the distance to fly.

From to XA40

Sunrise and sunset
Times for 20-Jul-2019
 Local
(UTC-5)
 Zulu
(UTC)
Morning civil twilight06:0511:05
Sunrise06:3311:33
Sunset20:3301:33
Evening civil twilight21:0102:01

Current date and time
Zulu (UTC)  20-Jul-2019 06:41:38
Local (UTC-5)  20-Jul-2019 01:41:38
 
METAR
KADS 
8nm W 
200615Z AUTO 16011G16KT 10SM CLR 29/22 A2994 RMK AO2 T02860221
KTKI 
12nm N 
200553Z AUTO 17012KT 10SM CLR 29/23 A2993 RMK AO2 SLP126 T02890228 10333 20278 403560256 50004
KF46 
12nm E 
200615Z AUTO 19009KT 10SM CLR 27/23 A2994 RMK AO2 T02710226
KDAL 
13nm SW 
200553Z 17010KT 10SM SCT300 29/22 A2993 RMK AO2 SLP125 T02940222 10344 20294 403610267 50006 $
KHQZ 
16nm SE 
200620Z AUTO 16007KT 10SM CLR 27/23 A2994 RMK AO1 T02690231
KDFW 
19nm W 
200553Z 17011KT 10SM FEW300 29/22 A2991 RMK AO2 SLP118 T02890217 10344 20289 403610256 50006
TAF
KDAL 
13nm SW 
200520Z 2006/2106 17017KT P6SM FEW050 SCT250
KDFW 
19nm W 
200520Z 2006/2112 17017KT P6SM FEW050 SCT250
NOTAMs
Click for the latest NOTAMs
NOTAMs are issued by the DoD/FAA and will open in a separate window not controlled by AirNav.

 

 
 

Would you like to see your business listed on this page?

 If your business provides an interesting product or service to pilots, flight crews, aircraft, or users of the Richardson Regional Heliport - Bush Highway, you should consider listing it here.  To start the listing process, click on the button below
 
Add a business
 

Other Pages about Richardson Regional Heliport - Bush Highway

Update a link
 
Copyright © AirNav, LLC. All rights reserved. Privacy Policy  Contact